createdAt,value
2023-05-16T00:00:15.922Z,43.84
2023-05-16T00:02:42.607Z,44.25
2023-05-16T00:05:09.164Z,43.94
2023-05-16T00:07:35.594Z,44.18
2023-05-16T00:10:02.039Z,43.75
2023-05-16T00:12:28.391Z,43.54
2023-05-16T00:14:54.926Z,43.62
2023-05-16T00:17:21.374Z,43.71
2023-05-16T00:19:47.784Z,43.47
2023-05-16T00:22:14.176Z,43.82
2023-05-16T00:24:40.512Z,43.96
2023-05-16T00:27:07.157Z,43.68
2023-05-16T00:29:33.527Z,43.11
2023-05-16T00:32:00.442Z,43.34
2023-05-16T00:34:26.824Z,42.66
2023-05-16T00:36:53.696Z,43.20
2023-05-16T00:39:20.084Z,43.39
2023-05-16T00:41:46.495Z,43.27
2023-05-16T00:44:13.887Z,43.38
2023-05-16T00:46:40.385Z,43.78
2023-05-16T00:49:06.949Z,43.99
2023-05-16T00:51:35.473Z,43.67
2023-05-16T00:54:01.834Z,43.90
2023-05-16T00:56:28.449Z,43.52
2023-05-16T00:58:57.259Z,43.31
2023-05-16T01:01:23.822Z,43.33
2023-05-16T01:03:50.351Z,43.24
2023-05-16T01:06:16.802Z,42.93
2023-05-16T01:08:43.194Z,43.04
2023-05-16T01:11:09.686Z,42.70
2023-05-16T01:13:36.474Z,42.86
2023-05-16T01:16:02.871Z,43.56
2023-05-16T01:18:29.373Z,43.27
2023-05-16T01:20:55.894Z,43.68
2023-05-16T01:23:22.308Z,43.30
2023-05-16T01:25:48.938Z,43.42
2023-05-16T01:28:15.314Z,42.72
2023-05-16T01:30:41.721Z,43.37
2023-05-16T01:33:08.162Z,43.89
2023-05-16T01:35:34.679Z,44.23
2023-05-16T01:38:01.049Z,43.92
2023-05-16T01:40:27.416Z,43.64
2023-05-16T01:42:53.901Z,43.26
2023-05-16T01:45:20.581Z,43.89
2023-05-16T01:47:46.979Z,43.98
2023-05-16T01:50:13.657Z,43.28
2023-05-16T01:52:40.047Z,43.51
2023-05-16T01:55:06.442Z,43.90
2023-05-16T01:57:32.932Z,44.28
2023-05-16T01:59:59.335Z,43.70
2023-05-16T02:02:25.773Z,44.18
2023-05-16T02:04:52.276Z,44.40
2023-05-16T02:07:18.738Z,44.17
2023-05-16T02:09:45.171Z,44.70
2023-05-16T02:12:11.540Z,44.30
2023-05-16T02:14:37.924Z,44.16
2023-05-16T02:17:04.580Z,44.49
2023-05-16T02:19:31.143Z,44.14
2023-05-16T02:21:57.711Z,44.03
2023-05-16T02:24:24.456Z,44.33
2023-05-16T02:26:51.300Z,45.29
2023-05-16T02:29:17.683Z,45.12
2023-05-16T02:31:44.097Z,44.65
2023-05-16T02:34:10.477Z,44.29
2023-05-16T02:36:36.967Z,44.54
2023-05-16T02:39:03.352Z,45.11
2023-05-16T02:41:29.937Z,44.84
2023-05-16T02:43:56.353Z,45.02
2023-05-16T02:46:23.139Z,44.77
2023-05-16T02:48:49.495Z,45.43
2023-05-16T02:51:15.952Z,45.49
2023-05-16T02:53:42.352Z,45.47
2023-05-16T02:56:08.784Z,45.03
2023-05-16T02:58:35.418Z,44.76
2023-05-16T03:01:02.020Z,45.48
2023-05-16T03:03:28.520Z,44.78
2023-05-16T03:05:55.021Z,44.84
2023-05-16T03:08:21.392Z,44.89
2023-05-16T03:10:47.798Z,44.73
2023-05-16T03:13:14.185Z,44.38
2023-05-16T03:15:41.623Z,44.71
2023-05-16T03:18:08.041Z,44.80
2023-05-16T03:20:34.527Z,44.77
2023-05-16T03:23:01.059Z,44.75
2023-05-16T03:25:27.734Z,44.97
2023-05-16T03:27:54.266Z,44.88
2023-05-16T03:30:20.936Z,44.91
2023-05-16T03:32:47.444Z,45.47
2023-05-16T03:35:14.401Z,45.62
2023-05-16T03:37:40.767Z,45.42
2023-05-16T03:40:07.175Z,44.87
2023-05-16T03:42:33.586Z,44.97
2023-05-16T03:44:59.956Z,44.94
2023-05-16T03:47:26.324Z,45.10
2023-05-16T03:49:52.769Z,45.56
2023-05-16T03:52:19.166Z,45.66
2023-05-16T03:54:45.773Z,45.84
2023-05-16T03:57:12.124Z,45.99
2023-05-16T03:59:38.467Z,45.69
2023-05-16T04:02:04.926Z,45.66
2023-05-16T04:04:31.505Z,45.39
2023-05-16T04:06:57.917Z,45.52
2023-05-16T04:09:24.347Z,46.48
2023-05-16T04:11:50.820Z,45.80
2023-05-16T04:14:17.288Z,46.03
2023-05-16T04:16:44.950Z,45.69
2023-05-16T04:19:11.391Z,46.06
2023-05-16T04:21:37.949Z,45.77
2023-05-16T04:24:04.625Z,46.24
2023-05-16T04:26:31.204Z,45.97
2023-05-16T04:28:57.721Z,46.05
2023-05-16T04:31:24.662Z,46.22
2023-05-16T04:33:51.092Z,45.58
2023-05-16T04:36:17.448Z,45.66
2023-05-16T04:38:43.807Z,45.43
2023-05-16T04:41:10.160Z,46.20
2023-05-16T04:43:37.102Z,46.49
2023-05-16T04:46:03.531Z,46.40
2023-05-16T04:48:30.004Z,46.38
2023-05-16T04:50:56.400Z,45.67
2023-05-16T04:53:22.761Z,45.69
2023-05-16T04:55:49.182Z,45.75
2023-05-16T04:58:15.695Z,46.24
2023-05-16T05:00:42.123Z,46.84
2023-05-16T05:03:08.478Z,47.02
2023-05-16T05:05:35.070Z,46.73
2023-05-16T05:08:01.576Z,46.62
2023-05-16T05:10:28.004Z,47.30
2023-05-16T05:12:54.351Z,47.15
2023-05-16T05:15:21.446Z,46.57
2023-05-16T05:17:48.193Z,47.18
2023-05-16T05:20:14.662Z,47.51
2023-05-16T05:22:41.239Z,48.68
2023-05-16T05:25:07.655Z,47.52
2023-05-16T05:27:34.054Z,47.16
2023-05-16T05:30:02.823Z,47.09
2023-05-16T05:32:30.313Z,46.25
2023-05-16T05:34:56.842Z,45.74
2023-05-16T05:37:23.185Z,45.18
2023-05-16T05:39:49.768Z,46.45
2023-05-16T05:42:16.247Z,45.88
2023-05-16T05:44:42.751Z,45.46
2023-05-16T05:47:09.185Z,45.40
2023-05-16T05:49:36.160Z,45.21
2023-05-16T05:52:02.568Z,45.54
2023-05-16T05:54:28.937Z,45.15
2023-05-16T05:56:55.544Z,45.38
2023-05-16T05:59:22.816Z,45.78
2023-05-16T06:01:49.265Z,45.24
2023-05-16T06:04:15.747Z,46.55
2023-05-16T06:06:42.204Z,46.94
2023-05-16T06:09:08.626Z,47.17
2023-05-16T06:11:34.975Z,46.44
2023-05-16T06:14:01.984Z,46.34
2023-05-16T06:16:28.450Z,46.43
2023-05-16T06:18:54.958Z,46.79
2023-05-16T06:21:21.578Z,47.03
2023-05-16T06:23:47.922Z,47.60
2023-05-16T06:26:14.284Z,46.75
2023-05-16T06:28:40.691Z,45.91
2023-05-16T06:31:07.014Z,46.16
2023-05-16T06:33:36.208Z,45.42
2023-05-16T06:36:03.198Z,44.88
2023-05-16T06:38:29.743Z,44.94
2023-05-16T06:40:56.123Z,45.16
2023-05-16T06:43:22.598Z,45.72
2023-05-16T06:45:49.046Z,45.49
2023-05-16T06:48:15.659Z,45.75
2023-05-16T06:50:42.146Z,45.36
2023-05-16T06:53:08.695Z,44.73
2023-05-16T06:55:35.173Z,45.26
2023-05-16T06:58:01.843Z,44.44
2023-05-16T07:00:28.289Z,45.51
2023-05-16T07:02:54.827Z,45.80
2023-05-16T07:05:21.253Z,45.83
2023-05-16T07:07:47.685Z,45.91
2023-05-16T07:10:14.116Z,45.71
2023-05-16T07:12:40.715Z,45.60
2023-05-16T07:15:07.168Z,45.68
2023-05-16T07:17:33.743Z,45.76
2023-05-16T07:20:01.768Z,45.53
2023-05-16T07:22:29.343Z,45.04
2023-05-16T07:24:55.872Z,45.33
2023-05-16T07:27:23.812Z,45.19
2023-05-16T07:29:50.484Z,44.60
2023-05-16T07:32:16.994Z,45.11
2023-05-16T07:34:43.455Z,45.06
2023-05-16T07:37:09.862Z,44.79
2023-05-16T07:39:37.409Z,44.51
2023-05-16T07:42:03.773Z,45.29
2023-05-16T07:44:30.202Z,45.10
2023-05-16T07:46:56.582Z,44.87
2023-05-16T07:49:23.287Z,45.16
2023-05-16T07:51:49.743Z,45.35
2023-05-16T07:54:16.135Z,45.38
2023-05-16T07:56:42.577Z,45.70
2023-05-16T07:59:09.059Z,45.31
2023-05-16T08:01:35.559Z,45.36
2023-05-16T08:04:02.027Z,45.82
2023-05-16T08:06:28.452Z,46.99
2023-05-16T08:08:54.878Z,45.94
2023-05-16T08:11:21.369Z,46.73
2023-05-16T08:13:48.177Z,47.01
2023-05-16T08:16:14.632Z,47.15
2023-05-16T08:18:41.153Z,46.86
2023-05-16T08:21:07.687Z,47.34
2023-05-16T08:23:34.357Z,48.25
2023-05-16T08:26:01.889Z,47.91
2023-05-16T08:28:28.311Z,48.21
2023-05-16T08:30:54.761Z,48.13
2023-05-16T08:33:21.365Z,47.80
2023-05-16T08:35:47.778Z,48.97
2023-05-16T08:38:14.178Z,49.75
2023-05-16T08:40:40.833Z,49.56
2023-05-16T08:43:07.331Z,50.34
2023-05-16T08:45:33.903Z,49.39
2023-05-16T08:48:00.594Z,49.89
2023-05-16T08:50:27.125Z,50.63
2023-05-16T08:52:53.885Z,50.93
2023-05-16T08:55:20.322Z,51.17
2023-05-16T08:57:46.825Z,51.56
2023-05-16T09:00:13.360Z,51.43
2023-05-16T09:02:39.928Z,52.23
2023-05-16T09:05:06.652Z,52.93
2023-05-16T09:07:33.105Z,52.49
2023-05-16T09:09:59.523Z,53.85
2023-05-16T09:12:26.362Z,53.32
2023-05-16T09:14:53.262Z,53.37
2023-05-16T09:17:25.679Z,52.88
2023-05-16T09:20:03.121Z,53.38
2023-05-16T09:22:29.564Z,55.92
2023-05-16T09:24:56.139Z,54.77
2023-05-16T09:27:22.766Z,53.80
2023-05-16T09:29:49.210Z,54.11
2023-05-16T09:32:16.339Z,53.89
2023-05-16T09:34:42.756Z,53.59
2023-05-16T09:37:09.188Z,54.29
2023-05-16T09:39:35.617Z,54.77
2023-05-16T09:42:02.052Z,54.06
2023-05-16T09:44:28.759Z,54.40
2023-05-16T09:46:55.414Z,53.63
2023-05-16T09:49:21.950Z,53.53
2023-05-16T09:51:48.351Z,53.38
2023-05-16T09:54:15.375Z,53.60
2023-05-16T09:56:41.983Z,53.73
2023-05-16T09:59:08.485Z,52.62
2023-05-16T10:01:34.992Z,52.48
2023-05-16T10:04:01.676Z,53.96
2023-05-16T10:06:28.266Z,53.47
2023-05-16T10:08:54.687Z,53.27
2023-05-16T10:11:21.153Z,53.18
2023-05-16T10:13:47.680Z,53.23
2023-05-16T10:16:14.416Z,52.90
2023-05-16T10:18:40.982Z,52.56
2023-05-16T10:21:09.674Z,52.25
2023-05-16T10:23:37.532Z,51.94
2023-05-16T10:26:03.988Z,51.97
2023-05-16T10:28:30.485Z,52.60
2023-05-16T10:30:56.919Z,52.80
2023-05-16T10:33:23.399Z,53.33
2023-05-16T10:35:49.869Z,53.13
2023-05-16T10:38:16.314Z,54.42
2023-05-16T10:40:46.131Z,54.67
2023-05-16T10:43:12.603Z,54.02
2023-05-16T10:45:39.027Z,54.17
2023-05-16T10:48:05.574Z,54.55
2023-05-16T10:50:32.329Z,53.51
2023-05-16T10:52:58.750Z,54.15
2023-05-16T10:55:25.640Z,54.28
2023-05-16T10:57:52.186Z,54.92
2023-05-16T11:00:18.604Z,55.95
2023-05-16T11:02:45.058Z,55.63
2023-05-16T11:05:11.746Z,55.46
2023-05-16T11:07:38.310Z,54.48
2023-05-16T11:10:04.749Z,55.16
2023-05-16T11:12:31.354Z,55.13
2023-05-16T11:14:58.041Z,54.93
2023-05-16T11:17:24.552Z,54.30
2023-05-16T11:19:51.139Z,53.81
2023-05-16T11:22:17.606Z,53.94
2023-05-16T11:24:44.066Z,54.26
2023-05-16T11:27:10.450Z,54.17
2023-05-16T11:29:37.085Z,54.41
2023-05-16T11:32:03.817Z,54.59
2023-05-16T11:34:30.516Z,53.88
2023-05-16T11:36:58.924Z,54.27
2023-05-16T11:39:25.571Z,54.51
2023-05-16T11:41:52.038Z,54.32
2023-05-16T11:44:18.737Z,54.41
2023-05-16T11:46:45.240Z,54.33
2023-05-16T11:49:12.016Z,54.40
2023-05-16T11:51:38.754Z,54.38
2023-05-16T11:54:05.163Z,54.68
2023-05-16T11:56:31.604Z,55.38
2023-05-16T11:58:58.492Z,55.48
2023-05-16T12:01:25.000Z,55.03
2023-05-16T12:03:51.573Z,55.95
2023-05-16T12:06:18.142Z,56.41
2023-05-16T12:08:44.559Z,56.81
2023-05-16T12:11:11.093Z,56.58
2023-05-16T12:13:37.773Z,56.59
2023-05-16T12:16:04.194Z,56.16
2023-05-16T12:18:31.041Z,57.76
2023-05-16T12:20:57.548Z,57.92
2023-05-16T12:23:24.982Z,56.27
2023-05-16T12:25:51.460Z,57.75
2023-05-16T12:28:17.963Z,57.69
2023-05-16T12:30:44.295Z,57.89
2023-05-16T12:33:10.748Z,57.93
2023-05-16T12:35:37.180Z,57.47
2023-05-16T12:38:03.610Z,58.27
2023-05-16T12:40:30.944Z,57.36
2023-05-16T12:42:57.499Z,57.05
2023-05-16T12:45:24.829Z,59.08
2023-05-16T12:47:51.698Z,58.07
2023-05-16T12:50:18.239Z,59.54
2023-05-16T12:52:44.758Z,59.10
2023-05-16T12:55:11.173Z,58.58
2023-05-16T12:57:39.247Z,58.13
2023-05-16T13:00:05.908Z,60.08
2023-05-16T13:02:32.540Z,58.59
2023-05-16T13:04:59.021Z,58.99
2023-05-16T13:07:25.397Z,58.93
2023-05-16T13:09:51.878Z,58.17
2023-05-16T13:12:18.410Z,57.80
2023-05-16T13:14:44.852Z,57.48
2023-05-16T13:17:11.222Z,57.08
2023-05-16T13:19:37.654Z,56.74
2023-05-16T13:22:04.127Z,56.86
2023-05-16T13:24:30.475Z,58.11
2023-05-16T13:26:57.101Z,59.33
2023-05-16T13:29:23.495Z,58.68
2023-05-16T13:31:50.093Z,58.39
2023-05-16T13:34:16.551Z,57.36
2023-05-16T13:36:53.858Z,56.13
2023-05-16T13:39:21.218Z,56.54
2023-05-16T13:41:48.774Z,57.45
2023-05-16T13:44:15.646Z,58.43
2023-05-16T13:46:42.112Z,57.81
2023-05-16T13:49:08.504Z,58.91
2023-05-16T13:51:34.958Z,59.06
2023-05-16T13:54:01.631Z,58.69
2023-05-16T13:56:28.354Z,58.00
2023-05-16T13:59:03.663Z,56.66
2023-05-16T14:01:32.693Z,57.27
2023-05-16T14:03:59.265Z,57.88
2023-05-16T14:06:25.661Z,58.72
2023-05-16T14:08:52.120Z,59.67
2023-05-16T14:11:18.640Z,59.19
2023-05-16T14:13:45.184Z,58.49
2023-05-16T14:16:11.673Z,58.79
2023-05-16T14:18:38.368Z,59.40
2023-05-16T14:21:04.774Z,58.51
2023-05-16T14:23:31.650Z,56.63
2023-05-16T14:25:58.068Z,56.41
2023-05-16T14:28:24.627Z,55.94
2023-05-16T14:30:51.330Z,55.81
2023-05-16T14:33:18.440Z,56.84
2023-05-16T14:35:45.468Z,57.18
2023-05-16T14:38:12.026Z,56.68
2023-05-16T14:40:38.590Z,56.75
2023-05-16T14:43:05.666Z,56.76
2023-05-16T14:45:32.422Z,57.41
2023-05-16T14:47:59.454Z,58.34
2023-05-16T14:50:26.424Z,57.06
2023-05-16T14:52:53.430Z,57.18
2023-05-16T14:55:20.143Z,57.54
2023-05-16T14:57:46.766Z,58.05
2023-05-16T15:00:14.601Z,57.22
2023-05-16T15:02:42.423Z,57.16
2023-05-16T15:05:12.046Z,57.67
2023-05-16T15:07:38.896Z,58.04
2023-05-16T15:10:06.220Z,57.71
2023-05-16T15:12:33.510Z,56.65
2023-05-16T15:15:01.586Z,57.73
2023-05-16T15:17:31.298Z,58.53
2023-05-16T15:19:58.438Z,58.26
2023-05-16T15:22:25.933Z,58.35
2023-05-16T15:24:53.895Z,57.14
2023-05-16T15:27:21.375Z,57.63
2023-05-16T15:29:50.803Z,58.31
2023-05-16T15:32:18.022Z,58.70
2023-05-16T15:34:45.246Z,59.47
2023-05-16T15:37:12.535Z,58.93
2023-05-16T15:39:39.670Z,57.98
2023-05-16T15:42:11.265Z,57.38
2023-05-16T15:44:38.852Z,57.47
2023-05-16T15:47:06.252Z,57.87
2023-05-16T15:49:33.385Z,58.55
2023-05-16T15:52:01.766Z,57.49
2023-05-16T15:54:29.139Z,57.81
2023-05-16T15:56:58.642Z,58.71
2023-05-16T15:59:25.816Z,58.60
2023-05-16T16:01:53.084Z,58.86
2023-05-16T16:04:22.435Z,58.58
2023-05-16T16:06:50.801Z,57.47
2023-05-16T16:09:18.596Z,58.65
2023-05-16T16:11:48.605Z,56.92
2023-05-16T16:14:15.881Z,57.64
2023-05-16T16:16:43.667Z,57.41
2023-05-16T16:19:11.178Z,57.16
2023-05-16T16:21:39.080Z,58.02
2023-05-16T16:24:06.403Z,57.04
2023-05-16T16:26:34.136Z,57.97
2023-05-16T16:29:01.450Z,57.98
2023-05-16T16:31:28.774Z,58.07
2023-05-16T16:33:56.058Z,59.16
2023-05-16T16:36:23.644Z,59.19
2023-05-16T16:38:51.942Z,59.26
2023-05-16T16:41:19.651Z,59.86
2023-05-16T16:43:46.823Z,60.64
2023-05-16T16:46:14.120Z,60.06
2023-05-16T16:48:41.570Z,59.02
2023-05-16T16:51:08.821Z,58.52
2023-05-16T16:53:36.002Z,58.86
2023-05-16T16:56:03.307Z,58.46
2023-05-16T16:58:31.155Z,59.09
2023-05-16T17:00:58.455Z,58.98
2023-05-16T17:03:30.823Z,59.89
2023-05-16T17:05:58.092Z,60.36
2023-05-16T17:08:25.277Z,59.30
2023-05-16T17:10:53.570Z,59.38
2023-05-16T17:13:21.139Z,61.40
2023-05-16T17:15:48.241Z,60.30
2023-05-16T17:18:15.564Z,59.15
2023-05-16T17:20:42.896Z,59.15
2023-05-16T17:23:10.104Z,60.15
2023-05-16T17:25:37.412Z,61.09
2023-05-16T17:28:05.290Z,61.26
2023-05-16T17:30:32.548Z,60.36
2023-05-16T17:33:00.144Z,59.18
2023-05-16T17:35:28.677Z,60.88
2023-05-16T17:37:56.185Z,61.10
2023-05-16T17:40:23.543Z,60.27
2023-05-16T17:42:50.856Z,60.75
2023-05-16T17:45:18.778Z,61.46
2023-05-16T17:47:46.417Z,61.11
2023-05-16T17:50:13.882Z,60.68
2023-05-16T17:52:41.724Z,60.70
2023-05-16T17:55:11.041Z,61.64
2023-05-16T17:57:38.225Z,61.81
2023-05-16T18:00:05.513Z,62.31
2023-05-16T18:02:32.948Z,62.64
2023-05-16T18:05:00.246Z,62.55
2023-05-16T18:07:28.136Z,63.13
2023-05-16T18:09:55.903Z,63.15
2023-05-16T18:12:23.583Z,64.27
2023-05-16T18:14:50.757Z,64.38
2023-05-16T18:17:17.966Z,64.13
2023-05-16T18:19:45.292Z,64.23
2023-05-16T18:22:12.659Z,65.51
2023-05-16T18:24:39.882Z,68.82
2023-05-16T18:27:07.109Z,67.70
2023-05-16T18:29:34.451Z,65.14
2023-05-16T18:32:01.708Z,64.60
2023-05-16T18:34:28.887Z,68.76
2023-05-16T18:36:56.226Z,65.63
2023-05-16T18:39:24.635Z,66.98
2023-05-16T18:41:51.873Z,63.42
2023-05-16T18:44:19.183Z,62.51
2023-05-16T18:46:49.699Z,63.90
2023-05-16T18:49:21.532Z,64.96
2023-05-16T18:51:48.833Z,64.57
2023-05-16T18:54:16.092Z,63.68
2023-05-16T18:56:43.551Z,65.72
2023-05-16T18:59:10.797Z,65.53
2023-05-16T19:01:38.060Z,65.50
2023-05-16T19:04:05.369Z,65.78
2023-05-16T19:06:32.764Z,64.59
2023-05-16T19:09:00.833Z,64.84
2023-05-16T19:11:28.258Z,65.02
2023-05-16T19:13:55.525Z,64.41
2023-05-16T19:16:22.815Z,63.48
2023-05-16T19:18:50.145Z,64.14
2023-05-16T19:21:17.527Z,64.30
2023-05-16T19:23:46.996Z,63.94
2023-05-16T19:26:15.215Z,64.29
2023-05-16T19:28:42.901Z,63.34
2023-05-16T19:31:10.136Z,63.82
2023-05-16T19:33:37.305Z,64.27
2023-05-16T19:36:04.595Z,70.56
2023-05-16T19:38:31.840Z,66.86
2023-05-16T19:40:59.972Z,65.77
2023-05-16T19:43:28.396Z,64.06
2023-05-16T19:45:55.448Z,63.77
2023-05-16T19:48:22.797Z,63.90
2023-05-16T19:50:50.050Z,62.45
2023-05-16T19:53:17.799Z,62.65
2023-05-16T19:55:45.046Z,62.68
2023-05-16T19:58:12.259Z,63.13
2023-05-16T20:00:39.384Z,62.32
2023-05-16T20:03:06.564Z,62.81
2023-05-16T20:05:33.718Z,64.18
2023-05-16T20:08:01.238Z,66.26
2023-05-16T20:10:28.540Z,64.36
2023-05-16T20:12:55.744Z,66.16
2023-05-16T20:15:22.954Z,65.22
2023-05-16T20:17:50.973Z,64.77
2023-05-16T20:20:18.177Z,63.74
2023-05-16T20:22:45.461Z,63.89
2023-05-16T20:25:13.037Z,63.22
2023-05-16T20:27:40.244Z,65.55
2023-05-16T20:30:07.584Z,64.66
2023-05-16T20:32:35.384Z,65.76
2023-05-16T20:35:02.595Z,65.43
2023-05-16T20:37:29.780Z,64.15
2023-05-16T20:39:56.905Z,64.58
2023-05-16T20:42:24.050Z,65.69
2023-05-16T20:44:53.923Z,65.83
2023-05-16T20:47:21.082Z,65.40
2023-05-16T20:49:48.248Z,65.17
2023-05-16T20:52:15.362Z,65.12
2023-05-16T20:54:42.052Z,64.26
2023-05-16T20:57:08.695Z,62.70
2023-05-16T20:59:35.145Z,63.89
2023-05-16T21:02:01.646Z,66.01
2023-05-16T21:04:28.303Z,64.86
2023-05-16T21:06:54.781Z,64.78
2023-05-16T21:09:21.295Z,64.67
2023-05-16T21:11:47.788Z,64.00
2023-05-16T21:14:14.268Z,64.34
2023-05-16T21:16:40.910Z,64.08
2023-05-16T21:19:07.718Z,64.85
2023-05-16T21:21:34.206Z,64.84
2023-05-16T21:24:00.626Z,65.28
2023-05-16T21:26:29.023Z,63.98
2023-05-16T21:28:56.139Z,64.21
2023-05-16T21:31:22.732Z,64.70
2023-05-16T21:33:49.269Z,64.46
2023-05-16T21:36:15.849Z,64.86
2023-05-16T21:38:42.639Z,65.29
2023-05-16T21:41:09.153Z,65.54
2023-05-16T21:43:35.588Z,65.75
2023-05-16T21:46:02.060Z,65.51
2023-05-16T21:48:28.860Z,67.62
2023-05-16T21:50:55.624Z,66.16
2023-05-16T21:53:22.809Z,67.01
2023-05-16T21:55:49.313Z,65.40
2023-05-16T21:58:15.685Z,66.48
2023-05-16T22:00:42.386Z,65.51
2023-05-16T22:03:09.145Z,65.07
2023-05-16T22:05:35.618Z,66.04
2023-05-16T22:08:03.210Z,66.15
2023-05-16T22:10:29.923Z,66.73
2023-05-16T22:12:56.342Z,67.58
2023-05-16T22:15:22.976Z,66.79
2023-05-16T22:17:49.559Z,66.05
2023-05-16T22:20:16.096Z,67.40
2023-05-16T22:22:42.610Z,66.18
2023-05-16T22:25:09.409Z,64.98
2023-05-16T22:27:35.865Z,65.13
2023-05-16T22:30:02.247Z,65.98
2023-05-16T22:32:28.943Z,67.48
2023-05-16T22:34:55.492Z,66.96
2023-05-16T22:37:21.902Z,68.45
2023-05-16T22:39:48.312Z,67.85
2023-05-16T22:42:14.684Z,68.99
2023-05-16T22:44:41.077Z,68.61
2023-05-16T22:47:07.442Z,68.21
2023-05-16T22:49:33.816Z,66.45
2023-05-16T22:52:00.223Z,66.25
2023-05-16T22:54:26.862Z,67.54
2023-05-16T22:56:53.513Z,68.66
2023-05-16T22:59:21.273Z,69.61
2023-05-16T23:01:47.664Z,69.99
2023-05-16T23:04:14.177Z,70.06
2023-05-16T23:06:40.703Z,69.71
2023-05-16T23:09:07.096Z,68.39
2023-05-16T23:11:33.634Z,68.83
2023-05-16T23:14:00.144Z,66.17
2023-05-16T23:16:26.523Z,65.52
2023-05-16T23:18:53.186Z,65.02
2023-05-16T23:21:19.842Z,65.22
2023-05-16T23:23:46.256Z,66.01
2023-05-16T23:26:12.668Z,66.27
2023-05-16T23:28:39.073Z,67.82
2023-05-16T23:31:06.382Z,67.29
2023-05-16T23:33:32.909Z,67.17
2023-05-16T23:35:59.704Z,66.71
2023-05-16T23:38:26.115Z,66.90
2023-05-16T23:40:52.655Z,66.44
2023-05-16T23:43:19.143Z,67.16
2023-05-16T23:45:45.599Z,68.64
2023-05-16T23:48:12.107Z,66.97
2023-05-16T23:50:38.612Z,65.55
2023-05-16T23:53:05.044Z,66.50
2023-05-16T23:55:31.531Z,66.94
2023-05-16T23:57:58.017Z,65.95
